createdAt,value
2019-01-04T00:01:37.569Z,22.10
2019-01-04T00:04:09.394Z,21.80
2019-01-04T00:06:39.291Z,20.87
2019-01-04T00:09:08.461Z,64.27
2019-01-04T00:11:37.662Z,31.30
2019-01-04T00:14:06.930Z,23.50
2019-01-04T00:16:36.121Z,38.20
2019-01-04T00:19:05.355Z,28.20
2019-01-04T00:21:34.622Z,16.03
2019-01-04T00:24:03.786Z,18.17
2019-01-04T00:26:32.982Z,18.80
2019-01-04T00:29:02.167Z,19.13
2019-01-04T00:31:31.376Z,16.60
2019-01-04T00:34:01.846Z,22.77
2019-01-04T00:36:31.066Z,25.40
2019-01-04T00:39:00.357Z,20.93
2019-01-04T00:41:30.176Z,25.83
2019-01-04T00:43:59.450Z,24.07
2019-01-04T00:46:28.932Z,23.93
2019-01-04T00:48:58.127Z,22.63
2019-01-04T00:51:27.238Z,23.00
2019-01-04T00:53:56.414Z,27.57
2019-01-04T00:57:10.437Z,21.90
2019-01-04T01:00:27.450Z,14.77
2019-01-04T01:03:23.823Z,26.67
2019-01-04T01:06:28.770Z,17.07
2019-01-04T01:09:41.184Z,17.73
2019-01-04T01:12:41.964Z,15.20
2019-01-04T01:15:28.606Z,19.40
2019-01-04T01:18:26.520Z,17.43
2019-01-04T01:21:33.760Z,13.93
2019-01-04T01:24:53.089Z,18.27
2019-01-04T01:27:58.580Z,26.47
2019-01-04T01:31:11.045Z,21.30
2019-01-04T01:34:29.431Z,20.10
2019-01-04T01:37:38.735Z,17.43
2019-01-04T01:40:48.068Z,18.67
2019-01-04T01:44:11.755Z,15.37
2019-01-04T01:46:50.625Z,15.67
2019-01-04T01:50:00.168Z,18.00
2019-01-04T01:52:33.250Z,17.57
2019-01-04T01:55:02.459Z,16.70
2019-01-04T01:57:31.548Z,15.03
2019-01-04T02:00:00.700Z,12.20
2019-01-04T02:02:29.877Z,15.97
2019-01-04T02:04:59.069Z,18.77
2019-01-04T02:07:28.250Z,14.47
2019-01-04T02:09:58.047Z,15.60
2019-01-04T02:12:27.212Z,15.93
2019-01-04T02:14:56.403Z,13.40
2019-01-04T02:17:25.583Z,13.47
2019-01-04T02:19:54.758Z,54.43
2019-01-04T02:22:23.944Z,18.73
2019-01-04T02:24:53.900Z,17.13
2019-01-04T02:27:23.057Z,16.43
2019-01-04T02:29:52.235Z,15.23
2019-01-04T02:32:25.199Z,16.43
2019-01-04T02:34:54.452Z,19.53
2019-01-04T02:37:23.980Z,21.77
2019-01-04T02:39:53.079Z,21.20
2019-01-04T02:42:22.264Z,27.30
2019-01-04T02:44:51.442Z,17.20
2019-01-04T02:47:20.620Z,16.60
2019-01-04T02:49:49.768Z,16.07
2019-01-04T02:52:18.945Z,17.33
2019-01-04T02:54:48.148Z,20.10
2019-01-04T02:57:17.318Z,13.87
2019-01-04T02:59:46.462Z,17.27
2019-01-04T03:02:15.716Z,15.67
2019-01-04T03:04:44.879Z,14.30
2019-01-04T03:07:14.028Z,16.47
2019-01-04T03:09:43.218Z,15.17
2019-01-04T03:12:12.382Z,16.67
2019-01-04T03:14:41.560Z,13.77
2019-01-04T03:17:10.745Z,14.67
2019-01-04T03:19:39.905Z,14.90
2019-01-04T03:22:09.057Z,15.03
2019-01-04T03:24:38.216Z,19.70
2019-01-04T03:27:07.386Z,13.47
2019-01-04T03:29:36.536Z,15.00
2019-01-04T03:32:05.714Z,12.83
2019-01-04T03:34:34.904Z,10.27
2019-01-04T03:37:04.076Z,12.93
2019-01-04T03:39:33.381Z,12.63
2019-01-04T03:42:02.546Z,11.67
2019-01-04T03:44:31.732Z,10.27
2019-01-04T03:47:00.900Z,19.60
2019-01-04T03:49:30.112Z,14.23
2019-01-04T03:51:59.245Z,16.33
2019-01-04T03:54:28.413Z,10.53
2019-01-04T03:56:57.570Z,13.03
2019-01-04T03:59:26.729Z,12.57
2019-01-04T04:01:55.925Z,15.77
2019-01-04T04:04:25.111Z,12.97
2019-01-04T04:06:54.318Z,11.70
2019-01-04T04:09:23.523Z,12.90
2019-01-04T04:11:52.723Z,15.13
2019-01-04T04:14:21.878Z,14.13
2019-01-04T04:16:50.978Z,14.27
2019-01-04T04:19:20.304Z,14.83
2019-01-04T04:21:49.471Z,18.27
2019-01-04T04:24:18.692Z,17.63
2019-01-04T04:26:47.760Z,19.27
2019-01-04T04:29:16.934Z,21.40
2019-01-04T04:31:46.129Z,37.07
2019-01-04T04:34:15.276Z,22.87
2019-01-04T04:36:44.521Z,17.33
2019-01-04T04:39:14.092Z,15.60
2019-01-04T04:41:43.168Z,16.37
2019-01-04T04:44:12.288Z,20.23
2019-01-04T04:46:42.285Z,44.27
2019-01-04T04:49:11.512Z,37.17
2019-01-04T04:51:40.700Z,21.87
2019-01-04T04:54:10.288Z,27.20
2019-01-04T04:56:39.446Z,29.80
2019-01-04T04:59:08.657Z,22.83
2019-01-04T05:01:37.818Z,19.40
2019-01-04T05:04:06.904Z,17.03
2019-01-04T05:06:36.103Z,35.73
2019-01-04T05:09:07.435Z,24.47
2019-01-04T05:11:36.606Z,36.20
2019-01-04T05:14:05.711Z,236.87
2019-01-04T05:16:34.903Z,119.87
2019-01-04T05:19:04.102Z,179.73
2019-01-04T05:21:33.259Z,117.17
2019-01-04T05:24:02.429Z,88.93
2019-01-04T05:26:31.559Z,77.13
2019-01-04T05:29:00.727Z,38.07
2019-01-04T05:31:30.054Z,36.97
2019-01-04T05:33:59.298Z,29.47
2019-01-04T05:36:28.403Z,15.90
2019-01-04T05:38:57.581Z,35.57
2019-01-04T05:41:27.325Z,27.20
2019-01-04T05:43:56.481Z,30.33
2019-01-04T05:46:25.682Z,21.33
2019-01-04T05:48:54.892Z,34.03
2019-01-04T05:51:24.047Z,34.67
2019-01-04T05:53:53.234Z,26.60
2019-01-04T05:56:22.456Z,40.97
2019-01-04T05:58:51.630Z,55.00
2019-01-04T06:01:21.309Z,52.60
2019-01-04T06:03:50.588Z,31.03
2019-01-04T06:06:19.781Z,57.63
2019-01-04T06:08:48.983Z,570.33
2019-01-04T06:11:18.168Z,441.23
2019-01-04T06:13:48.632Z,93.83
2019-01-04T06:16:17.857Z,63.27
2019-01-04T06:18:47.044Z,83.70
2019-01-04T06:21:16.236Z,112.17
2019-01-04T06:23:45.435Z,287.50
2019-01-04T06:26:14.610Z,353.57
2019-01-04T06:28:43.807Z,138.00
2019-01-04T06:31:12.991Z,127.30
2019-01-04T06:33:42.189Z,129.70
2019-01-04T06:36:11.397Z,86.37
2019-01-04T06:38:40.609Z,80.10
2019-01-04T06:41:09.830Z,86.33
2019-01-04T06:43:38.959Z,215.43
2019-01-04T06:46:08.149Z,130.83
2019-01-04T06:48:37.338Z,207.90
2019-01-04T06:51:06.450Z,167.47
2019-01-04T06:53:35.697Z,408.30
2019-01-04T06:56:06.178Z,296.80
2019-01-04T06:58:35.339Z,101.27
2019-01-04T07:01:04.555Z,280.17
2019-01-04T07:03:33.713Z,346.23
2019-01-04T07:06:02.883Z,170.83
2019-01-04T07:08:32.085Z,299.33
2019-01-04T07:11:01.262Z,207.93
2019-01-04T07:13:30.477Z,117.87
2019-01-04T07:16:00.186Z,258.77
2019-01-04T07:18:29.474Z,259.00
2019-01-04T07:20:58.645Z,628.13
2019-01-04T07:23:27.880Z,353.70
2019-01-04T07:25:57.076Z,213.20
2019-01-04T07:28:26.642Z,269.73
2019-01-04T07:30:55.870Z,1075.17
2019-01-04T07:33:25.060Z,358.27
2019-01-04T07:35:54.252Z,248.43
2019-01-04T07:38:23.419Z,408.53
2019-01-04T07:40:52.625Z,295.30
2019-01-04T07:43:21.859Z,416.23
2019-01-04T07:45:51.022Z,411.20
2019-01-04T07:48:20.252Z,151.40
2019-01-04T07:50:49.436Z,168.27
2019-01-04T07:53:18.592Z,166.77
2019-01-04T07:55:47.788Z,132.47
2019-01-04T07:58:16.984Z,148.57
2019-01-04T08:00:46.230Z,109.63
2019-01-04T08:03:25.918Z,108.97
2019-01-04T08:05:57.917Z,128.03
2019-01-04T08:08:27.078Z,93.50
2019-01-04T08:10:56.242Z,72.80
2019-01-04T08:13:25.451Z,128.10
2019-01-04T08:15:54.635Z,52.93
2019-01-04T08:18:23.791Z,95.67
2019-01-04T08:20:52.995Z,160.60
2019-01-04T08:23:22.175Z,117.53
2019-01-04T08:25:52.605Z,141.03
2019-01-04T08:28:21.816Z,211.87
2019-01-04T08:30:51.013Z,81.53
2019-01-04T08:33:20.163Z,154.27
2019-01-04T08:35:49.334Z,167.80
2019-01-04T08:38:19.090Z,109.63
2019-01-04T08:40:48.316Z,111.00
2019-01-04T08:43:17.980Z,117.83
2019-01-04T08:45:47.912Z,393.20
2019-01-04T08:48:17.217Z,92.47
2019-01-04T08:50:46.778Z,83.80
2019-01-04T08:53:15.984Z,165.13
2019-01-04T08:55:45.539Z,108.10
2019-01-04T08:58:14.724Z,108.83
2019-01-04T09:00:43.834Z,80.67
2019-01-04T09:03:13.004Z,142.30
2019-01-04T09:05:42.280Z,211.00
2019-01-04T09:08:11.460Z,378.93
2019-01-04T09:10:40.754Z,290.23
2019-01-04T09:13:12.003Z,207.87
2019-01-04T09:15:41.172Z,169.97
2019-01-04T09:18:10.377Z,119.23
2019-01-04T09:20:39.624Z,125.17
2019-01-04T09:23:08.833Z,123.03
2019-01-04T09:25:38.869Z,280.80
2019-01-04T09:28:08.314Z,130.87
2019-01-04T09:30:37.577Z,73.80
2019-01-04T09:33:06.676Z,63.10
2019-01-04T09:35:35.854Z,343.60
2019-01-04T09:38:05.132Z,88.53
2019-01-04T09:40:34.386Z,59.37
2019-01-04T09:43:03.890Z,55.27
2019-01-04T09:45:33.121Z,78.47
2019-01-04T09:48:03.023Z,62.90
2019-01-04T09:50:32.143Z,57.70
2019-01-04T09:53:01.347Z,54.90
2019-01-04T09:55:30.535Z,100.37
2019-01-04T09:57:59.712Z,68.57
2019-01-04T10:00:28.922Z,224.50
2019-01-04T10:02:58.122Z,187.20
2019-01-04T10:05:27.305Z,70.00
2019-01-04T10:07:56.515Z,86.43
2019-01-04T10:10:25.691Z,144.23
2019-01-04T10:12:54.991Z,107.43
2019-01-04T10:15:24.894Z,68.60
2019-01-04T10:17:54.116Z,50.93
2019-01-04T10:20:23.352Z,55.07
2019-01-04T10:22:52.567Z,54.00
2019-01-04T10:25:21.776Z,129.30
2019-01-04T10:27:51.019Z,167.30
2019-01-04T10:30:26.084Z,85.77
2019-01-04T10:32:55.312Z,66.13
2019-01-04T10:35:25.875Z,56.07
2019-01-04T10:37:55.586Z,45.50
2019-01-04T10:40:25.175Z,60.40
2019-01-04T10:42:54.853Z,52.23
2019-01-04T10:45:24.003Z,51.17
2019-01-04T10:47:53.247Z,57.33
2019-01-04T10:50:22.430Z,39.10
2019-01-04T10:52:51.628Z,40.73
2019-01-04T10:55:20.879Z,41.00
2019-01-04T10:57:50.682Z,55.20
2019-01-04T11:00:19.967Z,52.47
2019-01-04T11:02:49.152Z,36.30
2019-01-04T11:05:18.346Z,20.47
2019-01-04T11:07:47.633Z,37.97
2019-01-04T11:10:16.825Z,46.17
2019-01-04T11:12:46.018Z,43.43
2019-01-04T11:15:15.289Z,36.57
2019-01-04T11:17:44.522Z,23.90
2019-01-04T11:20:38.915Z,25.30
2019-01-04T11:23:54.375Z,19.70
2019-01-04T11:26:52.499Z,25.23
2019-01-04T11:29:34.947Z,24.67
2019-01-04T11:32:35.172Z,25.50
2019-01-04T11:35:39.664Z,23.70
2019-01-04T11:38:39.051Z,29.77
2019-01-04T11:42:04.537Z,26.87
2019-01-04T11:45:14.252Z,27.53
2019-01-04T11:47:52.773Z,25.27
2019-01-04T11:50:53.407Z,30.07
2019-01-04T11:53:24.076Z,30.80
2019-01-04T11:55:53.893Z,26.43
2019-01-04T11:58:28.051Z,22.20
2019-01-04T12:00:59.281Z,45.70
2019-01-04T12:03:28.208Z,29.87
2019-01-04T12:05:57.452Z,70.03
2019-01-04T12:08:27.595Z,112.60
2019-01-04T12:10:56.785Z,33.87
2019-01-04T12:13:26.206Z,161.53
2019-01-04T12:15:55.390Z,215.43
2019-01-04T12:18:24.641Z,161.13
2019-01-04T12:20:53.939Z,212.83
2019-01-04T12:23:24.097Z,156.93
2019-01-04T12:25:53.352Z,115.17
2019-01-04T12:28:22.633Z,84.67
2019-01-04T12:30:51.810Z,100.87
2019-01-04T12:33:21.055Z,52.77
2019-01-04T12:35:50.287Z,21.40
2019-01-04T12:38:21.805Z,41.50
2019-01-04T12:40:53.334Z,48.97
2019-01-04T12:43:22.545Z,68.53
2019-01-04T12:45:51.792Z,52.23
2019-01-04T12:48:21.098Z,33.73
2019-01-04T12:50:50.281Z,38.33
2019-01-04T12:53:19.496Z,31.03
2019-01-04T12:55:48.738Z,24.93
2019-01-04T12:58:17.969Z,31.90
2019-01-04T13:00:47.204Z,42.30
2019-01-04T13:03:16.447Z,63.43
2019-01-04T13:05:45.669Z,42.77
2019-01-04T13:08:15.915Z,46.50
2019-01-04T13:10:45.157Z,48.57
2019-01-04T13:13:14.361Z,34.33
2019-01-04T13:15:43.484Z,59.67
2019-01-04T13:18:12.733Z,41.60
2019-01-04T13:20:41.947Z,20.13
2019-01-04T13:23:11.134Z,31.53
2019-01-04T13:25:40.360Z,36.43
2019-01-04T13:28:09.566Z,24.87
2019-01-04T13:30:38.882Z,28.87
2019-01-04T13:33:08.066Z,72.40
2019-01-04T13:35:37.284Z,64.60
2019-01-04T13:38:06.480Z,39.93
2019-01-04T13:40:35.689Z,36.70
2019-01-04T13:43:04.893Z,34.20
2019-01-04T13:45:34.093Z,38.43
2019-01-04T13:48:03.334Z,41.50
2019-01-04T13:50:32.553Z,48.07
2019-01-04T13:53:01.792Z,31.47
2019-01-04T13:55:30.996Z,69.33
2019-01-04T13:58:00.175Z,48.60
2019-01-04T14:00:29.361Z,104.87
2019-01-04T14:02:58.985Z,45.03
2019-01-04T14:05:28.192Z,49.00
2019-01-04T14:07:57.377Z,54.43
2019-01-04T14:10:27.447Z,70.33
2019-01-04T14:12:56.637Z,60.03
2019-01-04T14:15:25.855Z,60.40
2019-01-04T14:17:55.473Z,70.23
2019-01-04T14:20:24.683Z,51.63
2019-01-04T14:22:54.168Z,76.57
2019-01-04T14:25:23.902Z,42.60
2019-01-04T14:27:53.088Z,46.67
2019-01-04T14:30:22.767Z,34.17
2019-01-04T14:32:52.080Z,195.27
2019-01-04T14:35:21.173Z,87.93
2019-01-04T14:37:50.369Z,73.27
2019-01-04T14:40:19.570Z,48.60
2019-01-04T14:42:48.781Z,67.13
2019-01-04T14:45:18.567Z,45.17
2019-01-04T14:47:47.739Z,142.87
2019-01-04T14:50:16.939Z,93.00
2019-01-04T14:52:48.078Z,204.77
2019-01-04T14:55:17.292Z,57.30
2019-01-04T14:57:47.227Z,75.10
2019-01-04T15:00:18.536Z,148.67
2019-01-04T15:02:47.723Z,388.57
2019-01-04T15:05:16.941Z,228.20
2019-01-04T15:07:46.166Z,189.40
2019-01-04T15:10:15.403Z,116.03
2019-01-04T15:12:44.604Z,102.83
2019-01-04T15:15:13.786Z,49.83
2019-01-04T15:17:44.179Z,82.27
2019-01-04T15:20:13.421Z,72.20
2019-01-04T15:22:42.576Z,96.70
2019-01-04T15:25:11.795Z,65.73
2019-01-04T15:27:41.059Z,50.80
2019-01-04T15:30:14.191Z,84.37
2019-01-04T15:32:44.102Z,99.03
2019-01-04T15:35:13.333Z,57.37
2019-01-04T15:37:42.859Z,54.27
2019-01-04T15:40:12.109Z,63.63
2019-01-04T15:42:41.308Z,71.83
2019-01-04T15:45:10.786Z,75.27
2019-01-04T15:47:40.077Z,86.73
2019-01-04T15:50:09.691Z,36.63
2019-01-04T15:52:39.271Z,83.03
2019-01-04T15:55:08.559Z,72.60
2019-01-04T15:57:37.857Z,54.20
2019-01-04T16:00:09.556Z,80.10
2019-01-04T16:02:38.816Z,75.70
2019-01-04T16:05:09.625Z,76.87
2019-01-04T16:07:38.869Z,120.77
2019-01-04T16:10:09.148Z,80.33
2019-01-04T16:12:38.907Z,135.90
2019-01-04T16:15:09.169Z,146.10
2019-01-04T16:17:38.456Z,148.77
2019-01-04T16:20:08.869Z,109.03
2019-01-04T16:22:38.176Z,100.97
2019-01-04T16:25:07.817Z,59.87
2019-01-04T16:27:37.044Z,55.60
2019-01-04T16:30:09.689Z,50.17
2019-01-04T16:32:38.874Z,81.60
2019-01-04T16:35:09.186Z,73.23
2019-01-04T16:37:38.492Z,51.23
2019-01-04T16:40:08.158Z,56.87
2019-01-04T16:42:38.222Z,95.13
2019-01-04T16:45:08.251Z,57.03
2019-01-04T16:47:37.473Z,145.53
2019-01-04T16:50:07.049Z,77.20
2019-01-04T16:52:36.290Z,72.87
2019-01-04T16:55:06.027Z,116.47
2019-01-04T16:57:35.265Z,181.73
2019-01-04T17:00:06.900Z,157.00
2019-01-04T17:02:36.213Z,68.67
2019-01-04T17:05:05.514Z,52.87
2019-01-04T17:07:34.781Z,77.57
2019-01-04T17:10:04.299Z,51.20
2019-01-04T17:12:33.543Z,44.50
2019-01-04T17:15:03.560Z,52.90
2019-01-04T17:17:46.300Z,40.10
2019-01-04T17:20:15.573Z,117.30
2019-01-04T17:22:45.592Z,70.80
2019-01-04T17:25:15.902Z,86.17
2019-01-04T17:27:45.203Z,101.23
2019-01-04T17:30:14.715Z,77.03
2019-01-04T17:32:44.242Z,264.60
2019-01-04T17:35:13.576Z,82.27
2019-01-04T17:37:42.786Z,80.03
2019-01-04T17:40:12.078Z,97.07
2019-01-04T17:42:41.343Z,69.47
2019-01-04T17:45:10.637Z,62.63
2019-01-04T17:47:42.740Z,62.10
2019-01-04T17:50:11.985Z,53.63
2019-01-04T17:52:41.217Z,69.60
2019-01-04T17:55:10.424Z,58.20
2019-01-04T17:57:39.645Z,63.23
2019-01-04T18:00:10.204Z,249.73
2019-01-04T18:02:39.458Z,95.00
2019-01-04T18:05:08.922Z,136.77
2019-01-04T18:07:38.165Z,144.00
2019-01-04T18:10:08.223Z,137.17
2019-01-04T18:12:37.464Z,118.30
2019-01-04T18:15:07.536Z,253.07
2019-01-04T18:17:36.782Z,348.67
2019-01-04T18:20:10.827Z,95.33
2019-01-04T18:22:38.353Z,72.83
2019-01-04T18:25:07.549Z,51.70
2019-01-04T18:27:37.970Z,53.83
2019-01-04T18:30:09.282Z,115.87
2019-01-04T18:32:38.462Z,66.03
2019-01-04T18:35:07.645Z,105.33
2019-01-04T18:37:37.418Z,108.23
2019-01-04T18:40:08.731Z,133.27
2019-01-04T18:42:38.105Z,281.57
2019-01-04T18:45:07.367Z,193.93
2019-01-04T18:47:39.468Z,84.20
2019-01-04T18:50:09.705Z,125.27
2019-01-04T18:52:38.930Z,181.83
2019-01-04T18:55:08.580Z,75.80
2019-01-04T18:57:39.811Z,113.00
2019-01-04T19:00:11.113Z,109.93
2019-01-04T19:02:40.371Z,68.13
2019-01-04T19:05:11.183Z,138.57
2019-01-04T19:07:40.430Z,127.73
2019-01-04T19:10:10.566Z,158.27
2019-01-04T19:12:39.824Z,121.87
2019-01-04T19:15:09.680Z,163.27
2019-01-04T19:17:39.118Z,376.37
2019-01-04T19:20:09.095Z,158.23
2019-01-04T19:22:38.978Z,73.40
2019-01-04T19:25:08.271Z,133.67
2019-01-04T19:27:37.612Z,268.43
2019-01-04T19:30:11.724Z,540.47
2019-01-04T19:32:41.623Z,244.73
2019-01-04T19:35:16.442Z,147.53
2019-01-04T19:37:46.812Z,177.17
2019-01-04T19:40:17.169Z,550.93
2019-01-04T19:42:46.472Z,301.77
2019-01-04T19:45:15.826Z,140.07
2019-01-04T19:47:45.182Z,98.83
2019-01-04T19:50:23.897Z,102.37
2019-01-04T19:52:53.736Z,101.23
2019-01-04T19:55:23.062Z,97.47
2019-01-04T19:57:52.601Z,39.93
2019-01-04T20:00:25.739Z,96.43
2019-01-04T20:02:54.936Z,109.70
2019-01-04T20:06:14.178Z,97.37
2019-01-04T20:09:53.606Z,134.33
2019-01-04T20:13:45.777Z,103.13
2019-01-04T20:16:50.174Z,76.33
2019-01-04T20:19:44.925Z,74.07
2019-01-04T20:22:46.731Z,114.77
2019-01-04T20:25:33.458Z,103.33
2019-01-04T20:28:20.606Z,63.23
2019-01-04T20:31:18.380Z,121.70
2019-01-04T20:34:16.008Z,65.30
2019-01-04T20:37:07.117Z,72.30
2019-01-04T20:40:01.769Z,77.27
2019-01-04T20:42:49.488Z,61.53
2019-01-04T20:45:34.854Z,77.33
2019-01-04T20:48:31.900Z,77.33
2019-01-04T20:51:18.854Z,66.43
2019-01-04T20:53:55.197Z,106.90
2019-01-04T20:56:46.583Z,71.47
2019-01-04T20:59:34.947Z,54.00
2019-01-04T21:02:21.831Z,134.40
2019-01-04T21:05:13.200Z,126.70
2019-01-04T21:08:21.320Z,204.53
2019-01-04T21:11:16.098Z,131.80
2019-01-04T21:14:01.927Z,109.97
2019-01-04T21:16:50.086Z,68.77
2019-01-04T21:19:36.833Z,71.97
2019-01-04T21:22:17.875Z,81.20
2019-01-04T21:25:04.995Z,80.10
2019-01-04T21:28:02.711Z,82.97
2019-01-04T21:31:05.981Z,48.43
2019-01-04T21:33:54.427Z,176.90
2019-01-04T21:36:51.830Z,60.77
2019-01-04T21:39:49.255Z,61.90
2019-01-04T21:42:55.746Z,75.63
2019-01-04T21:45:48.205Z,51.97
2019-01-04T21:48:47.258Z,68.37
2019-01-04T21:51:42.003Z,52.20
2019-01-04T21:54:41.955Z,114.43
2019-01-04T21:57:39.215Z,110.43
2019-01-04T22:00:30.268Z,220.20
2019-01-04T22:03:17.502Z,164.40
2019-01-04T22:06:08.109Z,98.13
2019-01-04T22:08:55.009Z,74.60
2019-01-04T22:11:43.268Z,251.03
2019-01-04T22:14:30.174Z,101.90
2019-01-04T22:17:16.940Z,68.70
2019-01-04T22:20:13.919Z,53.93
2019-01-04T22:23:00.914Z,118.53
2019-01-04T22:25:54.919Z,64.63
2019-01-04T22:28:46.093Z,63.53
2019-01-04T22:31:44.714Z,56.77
2019-01-04T22:34:26.206Z,42.20
2019-01-04T22:37:24.246Z,43.57
2019-01-04T22:40:11.816Z,60.63
2019-01-04T22:42:59.571Z,82.20
2019-01-04T22:45:58.549Z,96.00
2019-01-04T22:48:46.202Z,79.17
2019-01-04T22:51:53.051Z,63.07
2019-01-04T22:54:53.293Z,43.93
2019-01-04T22:57:48.439Z,67.73
2019-01-04T23:00:40.021Z,62.00
2019-01-04T23:03:28.523Z,49.00
2019-01-04T23:06:28.841Z,51.00
2019-01-04T23:09:13.746Z,48.33
2019-01-04T23:12:05.150Z,51.47
2019-01-04T23:14:52.264Z,58.37
2019-01-04T23:17:35.610Z,52.50
2019-01-04T23:20:18.706Z,52.80
2019-01-04T23:23:09.651Z,54.87
2019-01-04T23:25:56.665Z,49.10
2019-01-04T23:29:00.173Z,78.67
2019-01-04T23:31:54.549Z,55.90
2019-01-04T23:34:41.700Z,63.23
2019-01-04T23:37:28.661Z,66.37
2019-01-04T23:40:15.498Z,52.00
2019-01-04T23:43:12.577Z,49.90
2019-01-04T23:46:09.571Z,47.23
2019-01-04T23:48:56.261Z,64.17
2019-01-04T23:51:46.921Z,57.13
2019-01-04T23:54:41.127Z,63.17
2019-01-04T23:57:41.518Z,46.10
